Terminal Aerodrome Forecast
Issued by NWS Charleston, WV

Current Version | Previous Version | Graphics & Text | Print | Product List | Glossary On
Versions: 1 2 3 4 5 6 7 8 9 10 11 12 13 14 15 16 17 18 19 20 21 22 23 24 25
000
FTUS41 KRLX 241700 RRA
TAFHTS
TAF
KHTS 241749Z 2418/2518 17010G15KT P6SM BKN050
     FM241900 22018G40KT 3SM SHRA BR VCTS BKN035CB
     FM242100 22015G36KT 6SM SHRA BKN040
     FM242300 22013G30KT P6SM OVC035
     FM250200 23010G25KT P6SM OVC025
     FM250400 24008G13KT P6SM OVC018
     FM251300 27010G15KT P6SM BKN030
     FM251500 27010G15KT P6SM BKN040=

USA.gov is the U.S. government's official web portal to all federal, state and local government web resources and services.